createdAt,value
2023-02-16T00:01:18.859Z,0.63
2023-02-16T00:03:46.509Z,0.52
2023-02-16T00:06:16.128Z,0.80
2023-02-16T00:08:45.433Z,1.26
2023-02-16T00:11:40.415Z,1.56
2023-02-16T00:14:11.617Z,1.15
2023-02-16T00:16:39.809Z,1.02
2023-02-16T00:19:17.906Z,0.50
2023-02-16T00:21:45.494Z,0.44
2023-02-16T00:24:13.121Z,0.48
2023-02-16T00:26:41.896Z,0.65
2023-02-16T00:29:15.068Z,0.57
2023-02-16T00:31:42.682Z,0.88
2023-02-16T00:34:26.669Z,1.27
2023-02-16T00:36:54.621Z,1.38
2023-02-16T00:39:22.456Z,1.31
2023-02-16T00:41:54.013Z,1.18
2023-02-16T00:44:28.159Z,1.27
2023-02-16T00:46:56.310Z,1.12
2023-02-16T00:49:23.789Z,0.97
2023-02-16T00:51:51.610Z,1.13
2023-02-16T00:54:19.098Z,1.34
2023-02-16T00:56:47.481Z,1.16
2023-02-16T00:59:19.142Z,1.19
2023-02-16T01:01:48.838Z,1.05
2023-02-16T01:04:21.389Z,0.97
2023-02-16T01:07:06.466Z,1.09
2023-02-16T01:09:51.848Z,1.47
2023-02-16T01:12:21.904Z,1.18
2023-02-16T01:14:53.974Z,1.29
2023-02-16T01:17:23.382Z,1.23
2023-02-16T01:19:50.889Z,1.32
2023-02-16T01:22:18.421Z,1.29
2023-02-16T01:24:45.938Z,1.56
2023-02-16T01:27:14.274Z,1.63
2023-02-16T01:29:41.745Z,0.97
2023-02-16T01:32:11.957Z,0.51
2023-02-16T01:34:41.029Z,0.49
2023-02-16T01:37:14.871Z,1.01
2023-02-16T01:39:42.550Z,0.62
2023-02-16T01:42:20.288Z,0.67
2023-02-16T01:44:51.820Z,0.64
2023-02-16T01:47:35.854Z,0.64
2023-02-16T01:50:15.703Z,0.58
2023-02-16T01:52:45.608Z,0.39
2023-02-16T01:55:19.677Z,0.56
2023-02-16T01:57:50.313Z,0.93
2023-02-16T02:00:27.143Z,1.06
2023-02-16T02:03:18.377Z,1.30
2023-02-16T02:05:47.415Z,0.98
2023-02-16T02:08:22.474Z,0.62
2023-02-16T02:11:06.002Z,0.29
2023-02-16T02:13:39.821Z,0.31
2023-02-16T02:16:08.685Z,0.34
2023-02-16T02:18:36.320Z,0.49
2023-02-16T02:21:56.708Z,0.58
2023-02-16T02:24:58.606Z,0.24
2023-02-16T02:27:30.660Z,0.37
2023-02-16T02:30:14.204Z,0.30
2023-02-16T02:33:03.035Z,0.76
2023-02-16T02:35:41.642Z,0.55
2023-02-16T02:38:13.969Z,0.63
2023-02-16T02:41:00.470Z,1.09
2023-02-16T02:43:36.665Z,1.32
2023-02-16T02:46:10.421Z,1.21
2023-02-16T02:48:37.902Z,0.79
2023-02-16T02:51:30.688Z,0.86
2023-02-16T02:54:19.030Z,0.88
2023-02-16T02:57:23.068Z,0.77
2023-02-16T03:00:14.479Z,0.68
2023-02-16T03:02:44.128Z,0.82
2023-02-16T03:05:16.138Z,0.86
2023-02-16T03:07:48.507Z,1.24
2023-02-16T03:10:36.980Z,0.94
2023-02-16T03:13:08.993Z,0.87
2023-02-16T03:15:39.838Z,0.96
2023-02-16T03:18:27.551Z,0.98
2023-02-16T03:21:14.166Z,0.86
2023-02-16T03:24:01.427Z,1.01
2023-02-16T03:26:48.460Z,0.80
2023-02-16T03:29:17.093Z,0.34
2023-02-16T03:31:47.528Z,0.39
2023-02-16T03:34:16.081Z,0.54
2023-02-16T03:36:46.821Z,0.67
2023-02-16T03:39:14.616Z,0.79
2023-02-16T03:41:44.897Z,1.02
2023-02-16T03:44:12.382Z,1.07
2023-02-16T03:46:39.942Z,0.92
2023-02-16T03:49:08.828Z,0.77
2023-02-16T03:51:36.526Z,1.05
2023-02-16T03:54:04.338Z,0.91
2023-02-16T03:56:31.832Z,0.82
2023-02-16T03:58:59.394Z,1.07
2023-02-16T04:01:27.272Z,0.97
2023-02-16T04:03:54.788Z,0.61
2023-02-16T04:06:23.727Z,0.42
2023-02-16T04:08:51.745Z,0.30
2023-02-16T04:11:36.818Z,0.25
2023-02-16T04:14:04.309Z,0.20
2023-02-16T04:16:31.864Z,0.28
2023-02-16T04:18:59.381Z,0.82
2023-02-16T04:21:28.316Z,1.40
2023-02-16T04:23:55.807Z,1.06
2023-02-16T04:26:23.295Z,0.67
2023-02-16T04:28:50.806Z,0.78
2023-02-16T04:31:18.399Z,1.06
2023-02-16T04:33:45.974Z,0.94
2023-02-16T04:36:13.463Z,1.11
2023-02-16T04:38:42.330Z,1.15
2023-02-16T04:41:09.830Z,0.77
2023-02-16T04:43:37.309Z,0.89
2023-02-16T04:46:04.919Z,0.77
2023-02-16T04:48:32.846Z,0.80
2023-02-16T04:51:00.324Z,0.61
2023-02-16T04:53:27.802Z,0.55
2023-02-16T04:55:56.617Z,0.49
2023-02-16T04:58:24.110Z,0.24
2023-02-16T05:00:51.621Z,0.00
2023-02-16T05:03:19.159Z,-0.14
2023-02-16T05:05:46.611Z,0.28
2023-02-16T05:08:14.115Z,0.47
2023-02-16T05:10:43.050Z,0.26
2023-02-16T05:13:29.621Z,0.61
2023-02-16T05:15:57.296Z,0.75
2023-02-16T05:18:24.779Z,1.06
2023-02-16T05:21:21.604Z,1.25
2023-02-16T05:23:49.103Z,0.86
2023-02-16T05:26:16.593Z,0.77
2023-02-16T05:28:45.402Z,0.68
2023-02-16T05:31:12.995Z,0.68
2023-02-16T05:33:40.547Z,0.60
2023-02-16T05:36:08.602Z,0.88
2023-02-16T05:38:36.076Z,0.96
2023-02-16T05:41:04.096Z,0.87
2023-02-16T05:43:31.789Z,1.21
2023-02-16T05:46:00.648Z,0.92
2023-02-16T05:48:28.134Z,1.09
2023-02-16T05:50:55.701Z,1.26
2023-02-16T05:53:23.181Z,1.42
2023-02-16T05:55:50.674Z,0.65
2023-02-16T05:58:18.192Z,0.17
2023-02-16T06:00:45.672Z,0.47
2023-02-16T06:03:14.473Z,0.14
2023-02-16T06:05:41.953Z,0.13
2023-02-16T06:08:09.428Z,0.15
2023-02-16T06:10:37.190Z,0.29
2023-02-16T06:13:04.796Z,0.69
2023-02-16T06:15:32.278Z,0.39
2023-02-16T06:17:59.744Z,0.49
2023-02-16T06:20:28.649Z,0.37
2023-02-16T06:22:56.212Z,0.71
2023-02-16T06:25:24.046Z,0.51
2023-02-16T06:27:52.692Z,1.02
2023-02-16T06:30:20.376Z,0.96
2023-02-16T06:32:47.860Z,0.54
2023-02-16T06:35:15.523Z,0.49
2023-02-16T06:37:44.401Z,0.85
2023-02-16T06:40:14.215Z,0.98
2023-02-16T06:42:41.728Z,0.97
2023-02-16T06:45:10.286Z,0.60
2023-02-16T06:47:38.414Z,0.83
2023-02-16T06:50:09.662Z,1.33
2023-02-16T06:52:37.211Z,1.45
2023-02-16T06:55:06.648Z,1.67
2023-02-16T06:57:34.114Z,1.79
2023-02-16T07:00:01.684Z,1.95
2023-02-16T07:02:29.156Z,1.73
2023-02-16T07:04:56.618Z,1.22
2023-02-16T07:07:25.025Z,0.97
2023-02-16T07:09:52.464Z,0.86
2023-02-16T07:12:21.492Z,1.22
2023-02-16T07:14:49.326Z,1.18
2023-02-16T07:17:17.283Z,1.01
2023-02-16T07:19:44.763Z,1.42
2023-02-16T07:22:12.254Z,1.63
2023-02-16T07:24:39.724Z,1.68
2023-02-16T07:27:08.597Z,1.63
2023-02-16T07:29:37.465Z,1.11
2023-02-16T07:32:05.309Z,1.28
2023-02-16T07:34:33.024Z,1.48
2023-02-16T07:37:00.548Z,1.73
2023-02-16T07:39:29.334Z,1.83
2023-02-16T07:41:56.782Z,1.88
2023-02-16T07:44:24.307Z,2.19
2023-02-16T07:46:53.174Z,2.21
2023-02-16T07:49:20.748Z,1.53
2023-02-16T07:51:48.224Z,1.68
2023-02-16T07:54:15.786Z,1.80
2023-02-16T07:56:43.352Z,1.45
2023-02-16T07:59:10.826Z,1.77
2023-02-16T08:01:38.786Z,1.68
2023-02-16T08:04:07.784Z,1.27
2023-02-16T08:06:36.022Z,1.63
2023-02-16T08:09:03.528Z,1.73
2023-02-16T08:11:31.711Z,1.80
2023-02-16T08:14:00.603Z,2.23
2023-02-16T08:16:29.816Z,2.19
2023-02-16T08:18:59.905Z,1.86
2023-02-16T08:21:31.217Z,2.32
2023-02-16T08:24:00.886Z,2.56
2023-02-16T08:26:31.386Z,2.68
2023-02-16T08:28:59.503Z,2.52
2023-02-16T08:31:29.849Z,2.75
2023-02-16T08:33:59.566Z,2.61
2023-02-16T08:36:32.424Z,2.77
2023-02-16T08:39:00.932Z,2.72
2023-02-16T08:41:31.553Z,2.15
2023-02-16T08:44:00.768Z,2.55
2023-02-16T08:46:29.703Z,2.45
2023-02-16T08:48:59.885Z,2.42
2023-02-16T08:51:28.825Z,2.24
2023-02-16T08:53:58.827Z,2.43
2023-02-16T08:56:26.488Z,2.43
2023-02-16T08:58:54.008Z,3.05
2023-02-16T09:01:22.019Z,3.33
2023-02-16T09:03:49.633Z,3.40
2023-02-16T09:06:20.332Z,3.37
2023-02-16T09:08:52.530Z,2.88
2023-02-16T09:11:22.641Z,3.25
2023-02-16T09:13:51.489Z,3.49
2023-02-16T09:16:22.390Z,3.49
2023-02-16T09:18:51.578Z,3.47
2023-02-16T09:21:21.270Z,3.69
2023-02-16T09:23:50.395Z,3.64
2023-02-16T09:26:19.266Z,3.92
2023-02-16T09:28:48.927Z,4.01
2023-02-16T09:31:20.189Z,3.91
2023-02-16T09:33:47.770Z,4.01
2023-02-16T09:36:15.267Z,3.70
2023-02-16T09:38:43.118Z,4.06
2023-02-16T09:41:22.142Z,4.31
2023-02-16T09:43:58.744Z,4.24
2023-02-16T09:46:27.192Z,3.76
2023-02-16T09:48:55.130Z,3.72
2023-02-16T09:51:34.267Z,3.52
2023-02-16T09:54:15.116Z,3.91
2023-02-16T09:56:47.932Z,3.74
2023-02-16T09:59:28.321Z,4.27
2023-02-16T10:02:03.731Z,3.43
2023-02-16T10:04:39.954Z,3.81
2023-02-16T10:07:24.351Z,4.63
2023-02-16T10:09:55.166Z,5.01
2023-02-16T10:12:27.994Z,5.65
2023-02-16T10:15:01.326Z,5.50
2023-02-16T10:17:34.755Z,5.33
2023-02-16T10:20:06.070Z,4.75
2023-02-16T10:22:36.768Z,5.01
2023-02-16T10:25:06.854Z,5.71
2023-02-16T10:27:39.786Z,6.60
2023-02-16T10:30:17.777Z,7.01
2023-02-16T10:32:56.295Z,6.95
2023-02-16T10:35:32.859Z,6.81
2023-02-16T10:38:07.508Z,6.33
2023-02-16T10:40:45.104Z,6.76
2023-02-16T10:43:18.189Z,6.96
2023-02-16T10:45:52.599Z,7.25
2023-02-16T10:48:21.541Z,7.29
2023-02-16T10:50:58.642Z,7.33
2023-02-16T10:53:37.443Z,6.75
2023-02-16T10:56:25.925Z,6.91
2023-02-16T10:58:54.028Z,7.79
2023-02-16T11:01:32.741Z,8.72
2023-02-16T11:04:00.212Z,8.87
2023-02-16T11:06:28.976Z,8.57
2023-02-16T11:08:59.862Z,8.35
2023-02-16T11:11:28.752Z,7.99
2023-02-16T11:14:01.253Z,8.41
2023-02-16T11:16:30.673Z,8.70
2023-02-16T11:19:01.330Z,8.23
2023-02-16T11:21:45.958Z,8.82
2023-02-16T11:24:24.111Z,8.98
2023-02-16T11:27:01.995Z,9.13
2023-02-16T11:29:30.060Z,8.55
2023-02-16T11:32:00.413Z,8.45
2023-02-16T11:34:32.903Z,8.18
2023-02-16T11:37:08.319Z,8.21
2023-02-16T11:39:39.663Z,8.67
2023-02-16T11:42:11.145Z,8.45
2023-02-16T11:44:41.929Z,8.20
2023-02-16T11:47:25.111Z,8.14
2023-02-16T11:50:18.831Z,7.92
2023-02-16T11:52:49.472Z,7.51
2023-02-16T11:55:26.858Z,7.19
2023-02-16T11:57:56.324Z,7.02
2023-02-16T12:00:26.447Z,7.15
2023-02-16T12:03:12.056Z,6.89
2023-02-16T12:05:51.795Z,6.65
2023-02-16T12:08:35.146Z,7.08
2023-02-16T12:11:15.960Z,6.56
2023-02-16T12:13:50.412Z,6.35
2023-02-16T12:16:29.704Z,6.39
2023-02-16T12:19:13.636Z,6.41
2023-02-16T12:21:45.678Z,6.47
2023-02-16T12:24:27.821Z,6.43
2023-02-16T12:26:59.276Z,6.15
2023-02-16T12:29:47.751Z,6.34
2023-02-16T12:32:37.325Z,6.41
2023-02-16T12:35:19.638Z,6.17
2023-02-16T12:37:54.118Z,6.05
2023-02-16T12:40:34.206Z,6.31
2023-02-16T12:43:23.230Z,6.32
2023-02-16T12:45:52.051Z,6.50
2023-02-16T12:48:31.542Z,6.74
2023-02-16T12:51:04.609Z,6.93
2023-02-16T12:53:43.020Z,7.26
2023-02-16T12:56:18.105Z,7.38
2023-02-16T12:58:51.184Z,7.06
2023-02-16T13:01:22.685Z,6.48
2023-02-16T13:03:54.892Z,6.82
2023-02-16T13:06:29.698Z,6.57
2023-02-16T13:09:04.565Z,6.70
2023-02-16T13:11:37.071Z,6.75
2023-02-16T13:14:10.841Z,6.99
2023-02-16T13:16:43.335Z,6.91
2023-02-16T13:19:13.422Z,6.61
2023-02-16T13:22:06.615Z,6.39
2023-02-16T13:24:49.357Z,6.33
2023-02-16T13:27:28.253Z,6.36
2023-02-16T13:30:34.708Z,6.41
2023-02-16T13:33:19.541Z,6.66
2023-02-16T13:36:19.044Z,6.89
2023-02-16T13:39:11.432Z,7.00
2023-02-16T13:42:06.581Z,6.97
2023-02-16T13:44:42.413Z,6.94
2023-02-16T13:47:14.759Z,6.73
2023-02-16T13:49:43.807Z,6.58
2023-02-16T13:52:27.906Z,6.30
2023-02-16T13:54:56.735Z,6.08
2023-02-16T13:57:57.107Z,6.66
2023-02-16T14:00:31.529Z,6.66
2023-02-16T14:03:01.458Z,6.75
2023-02-16T14:05:40.821Z,7.16
2023-02-16T14:08:17.841Z,7.01
2023-02-16T14:11:08.599Z,7.21
2023-02-16T14:13:47.100Z,6.93
2023-02-16T14:16:29.064Z,7.15
2023-02-16T14:18:59.217Z,7.28
2023-02-16T14:21:33.383Z,7.15
2023-02-16T14:24:03.277Z,7.07
2023-02-16T14:26:33.344Z,7.02
2023-02-16T14:29:17.195Z,7.55
2023-02-16T14:31:51.654Z,7.61
2023-02-16T14:34:24.665Z,7.30
2023-02-16T14:37:31.666Z,7.34
2023-02-16T14:40:19.025Z,7.23
2023-02-16T14:42:56.231Z,7.17
2023-02-16T14:45:54.529Z,7.21
2023-02-16T14:48:44.898Z,7.12
2023-02-16T14:51:42.670Z,7.04
2023-02-16T14:54:42.986Z,7.01
2023-02-16T14:57:15.452Z,7.32
2023-02-16T14:59:51.404Z,7.46
2023-02-16T15:02:30.737Z,7.55
2023-02-16T15:04:58.350Z,7.30
2023-02-16T15:07:28.561Z,7.42
2023-02-16T15:09:59.449Z,7.70
2023-02-16T15:12:32.688Z,7.65
2023-02-16T15:15:03.982Z,7.45
2023-02-16T15:17:35.540Z,7.20
2023-02-16T15:20:10.538Z,6.94
2023-02-16T15:22:43.622Z,7.02
2023-02-16T15:25:22.764Z,6.83
2023-02-16T15:27:59.063Z,6.53
2023-02-16T15:30:29.765Z,6.24
2023-02-16T15:32:59.187Z,6.05
2023-02-16T15:35:30.224Z,5.90
2023-02-16T15:38:06.290Z,5.97
2023-02-16T15:40:35.183Z,5.70
2023-02-16T15:43:10.732Z,5.40
2023-02-16T15:45:39.619Z,5.38
2023-02-16T15:48:30.047Z,5.42
2023-02-16T15:51:03.018Z,5.09
2023-02-16T15:53:37.192Z,5.13
2023-02-16T15:56:13.564Z,5.28
2023-02-16T15:58:42.224Z,5.24
2023-02-16T16:01:13.947Z,5.47
2023-02-16T16:03:46.433Z,5.45
2023-02-16T16:06:14.007Z,5.59
2023-02-16T16:08:41.899Z,5.74
2023-02-16T16:11:09.891Z,5.61
2023-02-16T16:13:38.604Z,5.66
2023-02-16T16:16:09.725Z,5.37
2023-02-16T16:18:43.154Z,5.27
2023-02-16T16:21:34.191Z,5.14
2023-02-16T16:24:04.218Z,5.01
2023-02-16T16:26:35.203Z,4.64
2023-02-16T16:29:03.117Z,4.56
2023-02-16T16:31:40.551Z,4.80
2023-02-16T16:34:12.600Z,5.04
2023-02-16T16:36:46.763Z,4.82
2023-02-16T16:39:27.032Z,4.61
2023-02-16T16:42:10.976Z,4.19
2023-02-16T16:44:40.592Z,4.27
2023-02-16T16:47:23.102Z,4.15
2023-02-16T16:49:54.261Z,4.08
2023-02-16T16:52:35.126Z,4.16
2023-02-16T16:55:15.926Z,3.91
2023-02-16T16:57:43.674Z,3.99
2023-02-16T17:00:12.505Z,3.93
2023-02-16T17:02:40.096Z,4.33
2023-02-16T17:05:09.641Z,4.38
2023-02-16T17:07:37.296Z,4.14
2023-02-16T17:10:05.645Z,3.77
2023-02-16T17:12:33.273Z,3.87
2023-02-16T17:15:01.883Z,4.25
2023-02-16T17:17:29.604Z,4.18
2023-02-16T17:19:57.042Z,4.04
2023-02-16T17:22:25.809Z,3.79
2023-02-16T17:24:53.286Z,3.96
2023-02-16T17:27:20.837Z,3.83
2023-02-16T17:29:48.277Z,3.84
2023-02-16T17:32:15.835Z,3.98
2023-02-16T17:34:44.490Z,3.63
2023-02-16T17:37:12.170Z,3.46
2023-02-16T17:39:40.942Z,3.58
2023-02-16T17:42:11.520Z,3.48
2023-02-16T17:44:39.032Z,3.64
2023-02-16T17:47:06.693Z,3.61
2023-02-16T17:49:34.117Z,3.75
2023-02-16T17:52:01.588Z,3.72
2023-02-16T17:54:29.001Z,3.60
2023-02-16T17:56:57.777Z,3.87
2023-02-16T17:59:25.196Z,3.66
2023-02-16T18:01:52.656Z,3.69
2023-02-16T18:04:20.117Z,3.67
2023-02-16T18:06:47.587Z,3.66
2023-02-16T18:09:20.508Z,3.69
2023-02-16T18:11:47.957Z,3.66
2023-02-16T18:14:16.757Z,3.80
2023-02-16T18:16:44.212Z,3.91
2023-02-16T18:19:15.331Z,3.70
2023-02-16T18:21:42.796Z,3.75
2023-02-16T18:24:10.267Z,3.77
2023-02-16T18:26:37.737Z,3.43
2023-02-16T18:29:05.904Z,3.43
2023-02-16T18:31:34.914Z,3.12
2023-02-16T18:34:02.463Z,3.29
2023-02-16T18:36:29.944Z,3.07
2023-02-16T18:38:57.396Z,3.33
2023-02-16T18:41:24.815Z,3.31
2023-02-16T18:43:52.357Z,3.19
2023-02-16T18:46:19.833Z,3.25
2023-02-16T18:48:48.645Z,3.42
2023-02-16T18:51:17.441Z,3.33
2023-02-16T18:53:45.216Z,3.40
2023-02-16T18:56:13.357Z,3.91
2023-02-16T18:58:40.869Z,4.17
2023-02-16T19:01:26.328Z,4.44
2023-02-16T19:03:55.669Z,4.26
2023-02-16T19:06:23.440Z,4.25
2023-02-16T19:08:52.180Z,4.28
2023-02-16T19:11:20.309Z,4.09
2023-02-16T19:13:48.538Z,3.87
2023-02-16T19:16:16.811Z,3.53
2023-02-16T19:18:44.364Z,3.48
2023-02-16T19:21:15.205Z,3.46
2023-02-16T19:23:43.312Z,3.49
2023-02-16T19:26:14.581Z,3.38
2023-02-16T19:28:42.725Z,3.40
2023-02-16T19:31:17.745Z,3.56
2023-02-16T19:33:45.314Z,3.54
2023-02-16T19:36:15.154Z,3.57
2023-02-16T19:38:43.409Z,3.41
2023-02-16T19:41:13.770Z,3.45
2023-02-16T19:43:41.786Z,3.35
2023-02-16T19:46:09.837Z,3.21
2023-02-16T19:48:37.807Z,3.36
2023-02-16T19:51:06.605Z,3.28
2023-02-16T19:53:36.544Z,3.29
2023-02-16T19:56:05.289Z,3.43
2023-02-16T19:58:33.277Z,3.51
2023-02-16T20:01:06.863Z,3.45
2023-02-16T20:03:34.450Z,3.19
2023-02-16T20:06:02.067Z,3.30
2023-02-16T20:08:29.559Z,3.35
2023-02-16T20:10:58.346Z,3.28
2023-02-16T20:13:26.693Z,3.47
2023-02-16T20:15:54.196Z,3.35
2023-02-16T20:18:22.430Z,3.63
2023-02-16T20:20:58.823Z,4.02
2023-02-16T20:23:26.398Z,4.08
2023-02-16T20:25:53.934Z,3.85
2023-02-16T20:28:23.915Z,4.11
2023-02-16T20:30:52.200Z,4.23
2023-02-16T20:33:20.186Z,4.44
2023-02-16T20:35:48.554Z,4.63
2023-02-16T20:38:16.808Z,4.67
2023-02-16T20:40:44.872Z,4.53
2023-02-16T20:43:13.312Z,4.47
2023-02-16T20:45:42.905Z,4.12
2023-02-16T20:48:10.951Z,4.19
2023-02-16T20:50:38.516Z,4.01
2023-02-16T20:53:06.266Z,4.38
2023-02-16T20:55:34.131Z,4.63
2023-02-16T20:58:02.005Z,4.76
2023-02-16T21:00:29.927Z,4.97
2023-02-16T21:02:58.712Z,5.07
2023-02-16T21:05:26.264Z,5.04
2023-02-16T21:07:53.731Z,4.96
2023-02-16T21:10:21.279Z,4.84
2023-02-16T21:12:48.782Z,4.76
2023-02-16T21:15:16.280Z,4.60
2023-02-16T21:17:43.824Z,4.79
2023-02-16T21:20:13.001Z,4.64
2023-02-16T21:22:40.536Z,4.75
2023-02-16T21:25:08.889Z,4.73
2023-02-16T21:27:36.393Z,4.48
2023-02-16T21:30:04.818Z,4.27
2023-02-16T21:32:32.315Z,4.16
2023-02-16T21:34:59.949Z,4.23
2023-02-16T21:37:28.821Z,4.15
2023-02-16T21:40:14.221Z,4.27
2023-02-16T21:42:41.708Z,4.44
2023-02-16T21:45:16.958Z,4.40
2023-02-16T21:48:04.494Z,4.20
2023-02-16T21:50:35.573Z,4.07
2023-02-16T21:53:05.147Z,3.94
2023-02-16T21:55:50.859Z,3.80
2023-02-16T21:58:18.710Z,3.70
2023-02-16T22:00:50.810Z,3.82
2023-02-16T22:03:18.353Z,3.89
2023-02-16T22:05:46.098Z,3.75
2023-02-16T22:08:15.061Z,3.95
2023-02-16T22:10:42.580Z,4.19
2023-02-16T22:13:10.117Z,4.12
2023-02-16T22:15:37.870Z,4.43
2023-02-16T22:18:06.154Z,4.43
2023-02-16T22:20:33.956Z,4.63
2023-02-16T22:23:01.535Z,4.82
2023-02-16T22:25:30.417Z,5.06
2023-02-16T22:27:57.943Z,5.24
2023-02-16T22:30:25.511Z,5.25
2023-02-16T22:32:52.989Z,5.31
2023-02-16T22:35:20.486Z,5.20
2023-02-16T22:37:47.944Z,4.72
2023-02-16T22:40:15.828Z,4.71
2023-02-16T22:42:44.633Z,5.10
2023-02-16T22:45:12.086Z,4.64
2023-02-16T22:47:39.641Z,3.73
2023-02-16T22:50:08.438Z,4.15
2023-02-16T22:52:37.098Z,4.68
2023-02-16T22:55:05.146Z,4.91
2023-02-16T22:57:36.594Z,4.55
2023-02-16T23:00:08.431Z,4.35
2023-02-16T23:02:35.973Z,4.52
2023-02-16T23:05:04.131Z,4.66
2023-02-16T23:07:32.265Z,4.54
2023-02-16T23:09:59.796Z,4.46
2023-02-16T23:12:27.771Z,4.61
2023-02-16T23:14:55.606Z,4.76
2023-02-16T23:17:24.415Z,4.96
2023-02-16T23:19:52.071Z,4.94
2023-02-16T23:22:19.608Z,4.77
2023-02-16T23:25:07.591Z,4.79
2023-02-16T23:27:35.643Z,4.99
2023-02-16T23:30:03.309Z,4.92
2023-02-16T23:32:32.211Z,4.88
2023-02-16T23:34:59.840Z,4.85
2023-02-16T23:37:30.333Z,4.85
2023-02-16T23:39:59.189Z,4.68
2023-02-16T23:42:26.851Z,4.59
2023-02-16T23:44:55.280Z,4.67
2023-02-16T23:47:22.993Z,4.71
2023-02-16T23:49:51.905Z,4.77
2023-02-16T23:52:19.617Z,4.48
2023-02-16T23:54:47.144Z,4.44
2023-02-16T23:57:14.834Z,4.24
2023-02-16T23:59:43.199Z,4.45
